Terminal Aerodrome Forecast
Issued by NWS

Home | Current Version | Previous Version | Text Only | Print | Product List | Glossary On
Versions: 1 2 3 4 5 6 7 8 9 10 11 12 13 14 15 16 17 18 19 20 21 22 23
687
FTUS43 KDLH 271721
TAFHIB
TAF
KHIB 271721Z 2718/2818 08006KT 6SM -SHRA SCT020 OVC080
     FM272100 08008KT P6SM VCSH SCT070
     FM280000 VRB03KT P6SM SCT040
     FM280600 00000KT 3SM BR SCT010
      TEMPO 2808/2812 1/2SM FG SCT004
     FM281200 07006KT P6SM SCT040=

USA.gov is the U.S. government's official web portal to all federal, state and local government web resources and services.